createdAt,value
2022-08-19T00:00:43.720Z,58.65
2022-08-19T00:02:15.394Z,58.90
2022-08-19T00:03:48.680Z,58.90
2022-08-19T00:05:22.350Z,59.44
2022-08-19T00:06:54.278Z,59.57
2022-08-19T00:08:26.633Z,59.87
2022-08-19T00:09:58.324Z,60.00
2022-08-19T00:11:30.072Z,60.29
2022-08-19T00:13:01.747Z,60.19
2022-08-19T00:14:33.490Z,60.08
2022-08-19T00:16:06.792Z,60.16
2022-08-19T00:17:38.530Z,60.13
2022-08-19T00:19:15.767Z,60.13
2022-08-19T00:20:47.542Z,60.14
2022-08-19T00:22:19.425Z,60.04
2022-08-19T00:23:51.334Z,60.04
2022-08-19T00:25:30.442Z,60.02
2022-08-19T00:27:24.862Z,59.85
2022-08-19T00:28:55.268Z,60.03
2022-08-19T00:30:28.721Z,60.25
2022-08-19T00:32:00.776Z,60.70
2022-08-19T00:33:33.427Z,61.15
2022-08-19T00:35:07.877Z,61.30
2022-08-19T00:36:40.251Z,61.63
2022-08-19T00:38:11.973Z,61.61
2022-08-19T00:39:43.796Z,61.68
2022-08-19T00:41:18.295Z,61.90
2022-08-19T00:42:49.989Z,62.01
2022-08-19T00:44:26.703Z,62.07
2022-08-19T00:45:58.857Z,62.06
2022-08-19T00:47:30.611Z,62.13
2022-08-19T00:49:15.766Z,62.37
2022-08-19T00:50:52.240Z,62.29
2022-08-19T00:52:27.985Z,62.40
2022-08-19T00:54:02.022Z,62.20
2022-08-19T00:55:34.377Z,62.39
2022-08-19T00:57:08.709Z,62.46
2022-08-19T00:58:41.837Z,62.38
2022-08-19T01:00:19.736Z,62.36
2022-08-19T01:01:51.675Z,62.35
2022-08-19T01:03:23.802Z,62.83
2022-08-19T01:04:56.287Z,62.71
2022-08-19T01:06:29.461Z,62.78
2022-08-19T01:08:04.388Z,62.93
2022-08-19T01:09:36.860Z,62.78
2022-08-19T01:11:09.372Z,62.59
2022-08-19T01:12:42.331Z,62.28
2022-08-19T01:14:15.019Z,62.13
2022-08-19T01:15:51.206Z,61.80
2022-08-19T01:17:23.052Z,61.96
2022-08-19T01:18:54.793Z,61.78
2022-08-19T01:20:26.748Z,61.88
2022-08-19T01:22:14.425Z,62.01
2022-08-19T01:23:50.202Z,61.86
2022-08-19T01:25:27.804Z,61.78
2022-08-19T01:27:00.756Z,61.51
2022-08-19T01:28:39.707Z,61.64
2022-08-19T01:30:14.252Z,61.41
2022-08-19T01:31:46.012Z,61.29
2022-08-19T01:33:18.433Z,61.42
2022-08-19T01:34:50.078Z,61.49
2022-08-19T01:36:26.475Z,61.58
2022-08-19T01:38:02.528Z,61.40
2022-08-19T01:39:35.708Z,61.42
2022-08-19T01:41:11.176Z,61.43
2022-08-19T01:42:43.100Z,61.33
2022-08-19T01:44:18.806Z,61.48
2022-08-19T01:45:51.943Z,61.37
2022-08-19T01:47:23.831Z,61.45
2022-08-19T01:48:55.480Z,61.55
2022-08-19T01:50:27.408Z,61.41
2022-08-19T01:52:01.103Z,61.57
2022-08-19T01:53:33.765Z,61.67
2022-08-19T01:55:09.604Z,61.69
2022-08-19T01:56:41.295Z,61.67
2022-08-19T01:58:15.877Z,61.76
2022-08-19T01:59:47.726Z,61.78
2022-08-19T02:01:20.219Z,61.54
2022-08-19T02:02:52.062Z,61.56
2022-08-19T02:04:24.395Z,61.75
2022-08-19T02:05:57.054Z,61.82
2022-08-19T02:07:30.128Z,62.14
2022-08-19T02:09:03.500Z,62.34
2022-08-19T02:10:40.128Z,62.77
2022-08-19T02:12:11.966Z,63.27
2022-08-19T02:13:43.783Z,63.51
2022-08-19T02:15:15.657Z,63.78
2022-08-19T02:16:47.356Z,64.22
2022-08-19T02:18:19.072Z,64.22
2022-08-19T02:19:51.025Z,64.40
2022-08-19T02:21:24.025Z,64.39
2022-08-19T02:22:55.842Z,64.27
2022-08-19T02:24:28.413Z,64.69
2022-08-19T02:26:01.433Z,64.81
2022-08-19T02:27:34.323Z,64.83
2022-08-19T02:29:06.405Z,64.83
2022-08-19T02:30:39.132Z,64.78
2022-08-19T02:32:10.794Z,64.95
2022-08-19T02:33:42.881Z,64.88
2022-08-19T02:35:15.165Z,65.29
2022-08-19T02:36:50.596Z,65.46
2022-08-19T02:38:26.421Z,65.78
2022-08-19T02:39:58.793Z,66.28
2022-08-19T02:41:34.428Z,66.78
2022-08-19T02:43:09.370Z,67.36
2022-08-19T02:44:41.022Z,67.86
2022-08-19T02:46:14.881Z,68.08
2022-08-19T02:47:46.567Z,68.23
2022-08-19T02:49:18.871Z,68.17
2022-08-19T02:50:56.087Z,68.26
2022-08-19T02:52:28.285Z,68.04
2022-08-19T02:54:00.868Z,67.75
2022-08-19T02:55:32.627Z,67.40
2022-08-19T02:57:19.077Z,67.24
2022-08-19T02:58:51.110Z,66.98
2022-08-19T03:00:25.061Z,66.81
2022-08-19T03:01:56.740Z,66.49
2022-08-19T03:03:28.673Z,66.22
2022-08-19T03:05:00.386Z,66.07
2022-08-19T03:06:33.013Z,65.69
2022-08-19T03:08:05.121Z,65.50
2022-08-19T03:09:38.672Z,65.49
2022-08-19T03:11:14.947Z,65.28
2022-08-19T03:12:48.019Z,64.95
2022-08-19T03:14:20.088Z,65.02
2022-08-19T03:15:51.948Z,64.83
2022-08-19T03:17:24.497Z,64.65
2022-08-19T03:19:00.857Z,64.60
2022-08-19T03:20:32.517Z,64.98
2022-08-19T03:22:05.441Z,65.27
2022-08-19T03:23:37.388Z,65.73
2022-08-19T03:25:10.019Z,66.06
2022-08-19T03:26:44.106Z,66.22
2022-08-19T03:28:17.348Z,66.36
2022-08-19T03:29:49.091Z,66.34
2022-08-19T03:31:44.462Z,66.66
2022-08-19T03:33:18.003Z,67.00
2022-08-19T03:34:51.837Z,66.69
2022-08-19T03:36:25.665Z,66.66
2022-08-19T03:37:59.344Z,66.39
2022-08-19T03:39:31.605Z,66.00
2022-08-19T03:41:07.223Z,66.33
2022-08-19T03:42:48.813Z,66.71
2022-08-19T03:44:33.313Z,66.96
2022-08-19T03:46:07.559Z,67.56
2022-08-19T03:47:39.471Z,67.66
2022-08-19T03:49:11.139Z,67.73
2022-08-19T03:50:46.135Z,67.88
2022-08-19T03:52:17.881Z,67.87
2022-08-19T03:53:49.970Z,68.50
2022-08-19T03:55:21.613Z,68.66
2022-08-19T03:56:55.156Z,68.52
2022-08-19T03:58:29.584Z,68.88
2022-08-19T04:00:13.267Z,68.53
2022-08-19T04:01:45.882Z,68.42
2022-08-19T04:03:19.599Z,68.17
2022-08-19T04:04:55.192Z,68.30
2022-08-19T04:06:29.328Z,68.24
2022-08-19T04:08:01.473Z,68.33
2022-08-19T04:09:34.437Z,68.63
2022-08-19T04:11:08.833Z,68.82
2022-08-19T04:12:40.511Z,69.14
2022-08-19T04:14:15.047Z,69.45
2022-08-19T04:15:48.301Z,69.56
2022-08-19T04:17:19.984Z,69.63
2022-08-19T04:18:51.737Z,69.65
2022-08-19T04:20:23.406Z,69.80
2022-08-19T04:21:56.267Z,69.78
2022-08-19T04:23:29.077Z,69.95
2022-08-19T04:25:01.086Z,69.96
2022-08-19T04:26:35.719Z,70.02
2022-08-19T04:28:08.020Z,69.97
2022-08-19T04:29:41.284Z,69.77
2022-08-19T04:31:16.496Z,69.85
2022-08-19T04:32:48.160Z,69.48
2022-08-19T04:34:24.971Z,69.38
2022-08-19T04:35:57.574Z,68.93
2022-08-19T04:37:35.126Z,68.78
2022-08-19T04:39:09.119Z,68.62
2022-08-19T04:41:00.864Z,68.24
2022-08-19T04:42:41.632Z,68.09
2022-08-19T04:44:13.972Z,67.78
2022-08-19T04:45:46.169Z,67.72
2022-08-19T04:47:19.293Z,67.54
2022-08-19T04:49:13.611Z,67.67
2022-08-19T04:50:45.664Z,67.41
2022-08-19T04:52:17.381Z,67.73
2022-08-19T04:53:49.083Z,67.51
2022-08-19T04:55:20.836Z,67.44
2022-08-19T04:56:53.763Z,67.59
2022-08-19T04:58:27.425Z,67.08
2022-08-19T04:59:59.129Z,66.90
2022-08-19T05:01:33.854Z,67.10
2022-08-19T05:03:07.604Z,66.96
2022-08-19T05:04:40.404Z,67.19
2022-08-19T05:06:14.703Z,66.92
2022-08-19T05:07:46.467Z,66.61
2022-08-19T05:09:18.483Z,65.91
2022-08-19T05:10:51.919Z,65.61
2022-08-19T05:12:26.753Z,65.75
2022-08-19T05:14:02.281Z,65.92
2022-08-19T05:15:34.035Z,66.18
2022-08-19T05:17:26.227Z,66.46
2022-08-19T05:19:17.589Z,66.76
2022-08-19T05:21:08.081Z,66.97
2022-08-19T05:22:40.138Z,67.11
2022-08-19T05:24:13.558Z,67.38
2022-08-19T05:25:45.364Z,67.41
2022-08-19T05:27:17.098Z,67.35
2022-08-19T05:28:51.948Z,67.38
2022-08-19T05:30:42.357Z,67.44
2022-08-19T05:32:18.070Z,67.16
2022-08-19T05:33:50.317Z,66.97
2022-08-19T05:35:24.980Z,66.52
2022-08-19T05:36:58.954Z,66.15
2022-08-19T05:38:30.972Z,65.72
2022-08-19T05:40:03.745Z,64.92
2022-08-19T05:41:35.554Z,64.58
2022-08-19T05:43:08.532Z,64.24
2022-08-19T05:44:46.256Z,63.95
2022-08-19T05:46:19.311Z,63.57
2022-08-19T05:47:59.696Z,63.23
2022-08-19T05:49:33.825Z,63.11
2022-08-19T05:51:09.070Z,62.46
2022-08-19T05:52:45.863Z,62.34
2022-08-19T05:54:23.912Z,62.21
2022-08-19T05:55:55.614Z,62.00
2022-08-19T05:57:29.835Z,61.63
2022-08-19T05:59:01.941Z,61.66
2022-08-19T06:00:33.614Z,61.31
2022-08-19T06:02:07.547Z,61.16
2022-08-19T06:03:40.452Z,60.76
2022-08-19T06:05:12.573Z,60.99
2022-08-19T06:06:46.048Z,60.47
2022-08-19T06:08:19.212Z,60.77
2022-08-19T06:10:00.620Z,60.46
2022-08-19T06:11:35.798Z,60.66
2022-08-19T06:13:07.484Z,60.88
2022-08-19T06:14:41.668Z,61.47
2022-08-19T06:16:13.841Z,61.85
2022-08-19T06:17:45.552Z,62.32
2022-08-19T06:19:20.226Z,62.11
2022-08-19T06:20:55.751Z,62.26
2022-08-19T06:22:29.204Z,62.03
2022-08-19T06:24:01.149Z,61.61
2022-08-19T06:25:32.934Z,61.29
2022-08-19T06:27:06.649Z,61.31
2022-08-19T06:28:43.604Z,61.39
2022-08-19T06:30:16.233Z,61.73
2022-08-19T06:31:52.558Z,62.07
2022-08-19T06:33:24.298Z,62.69
2022-08-19T06:34:56.027Z,62.71
2022-08-19T06:36:32.560Z,62.43
2022-08-19T06:38:06.030Z,62.32
2022-08-19T06:39:40.816Z,62.20
2022-08-19T06:41:12.549Z,61.77
2022-08-19T06:42:45.212Z,62.09
2022-08-19T06:44:29.246Z,61.48
2022-08-19T06:46:04.621Z,61.86
2022-08-19T06:47:38.048Z,61.82
2022-08-19T06:49:14.401Z,61.76
2022-08-19T06:50:46.155Z,62.17
2022-08-19T06:52:17.959Z,62.28
2022-08-19T06:53:53.151Z,62.78
2022-08-19T06:55:25.141Z,62.99
2022-08-19T06:56:57.332Z,63.29
2022-08-19T06:58:32.962Z,62.96
2022-08-19T07:00:12.252Z,63.45
2022-08-19T07:01:49.627Z,63.59
2022-08-19T07:03:22.070Z,63.58
2022-08-19T07:04:54.111Z,63.08
2022-08-19T07:06:43.739Z,63.15
2022-08-19T07:08:16.191Z,63.61
2022-08-19T07:09:59.054Z,63.56
2022-08-19T07:11:33.509Z,63.00
2022-08-19T07:13:06.860Z,63.33
2022-08-19T07:14:40.158Z,63.31
2022-08-19T07:16:14.605Z,63.29
2022-08-19T07:17:52.515Z,63.25
2022-08-19T07:19:28.041Z,62.71
2022-08-19T07:21:05.196Z,62.58
2022-08-19T07:22:41.479Z,62.28
2022-08-19T07:24:13.363Z,62.12
2022-08-19T07:25:52.938Z,61.76
2022-08-19T07:27:24.964Z,61.93
2022-08-19T07:28:58.509Z,61.76
2022-08-19T07:30:30.688Z,61.05
2022-08-19T07:32:04.755Z,61.40
2022-08-19T07:33:37.536Z,61.29
2022-08-19T07:35:10.449Z,60.63
2022-08-19T07:36:44.639Z,60.50
2022-08-19T07:38:17.051Z,60.02
2022-08-19T07:39:49.213Z,60.35
2022-08-19T07:41:24.314Z,60.43
2022-08-19T07:42:56.036Z,60.50
2022-08-19T07:44:28.151Z,61.29
2022-08-19T07:45:59.907Z,62.35
2022-08-19T07:47:47.867Z,62.40
2022-08-19T07:49:23.266Z,62.91
2022-08-19T07:50:57.931Z,62.31
2022-08-19T07:52:29.952Z,62.47
2022-08-19T07:54:01.726Z,62.43
2022-08-19T07:55:42.684Z,62.24
2022-08-19T07:57:17.669Z,61.83
2022-08-19T07:58:51.814Z,61.91
2022-08-19T08:00:24.427Z,61.50
2022-08-19T08:01:57.763Z,61.96
2022-08-19T08:03:48.866Z,61.77
2022-08-19T08:05:43.007Z,61.67
2022-08-19T08:07:34.397Z,61.44
2022-08-19T08:09:13.153Z,61.17
2022-08-19T08:10:52.965Z,60.70
2022-08-19T08:12:34.514Z,60.42
2022-08-19T08:14:07.580Z,60.35
2022-08-19T08:15:59.269Z,59.92
2022-08-19T08:17:49.837Z,59.41
2022-08-19T08:19:25.644Z,58.81
2022-08-19T08:20:58.655Z,58.07
2022-08-19T08:22:56.604Z,57.62
2022-08-19T08:24:31.547Z,57.14
2022-08-19T08:26:04.630Z,56.99
2022-08-19T08:27:40.451Z,56.46
2022-08-19T08:29:13.566Z,56.48
2022-08-19T08:30:48.394Z,56.38
2022-08-19T08:32:20.902Z,56.11
2022-08-19T08:33:52.868Z,55.33
2022-08-19T08:35:25.154Z,55.19
2022-08-19T08:36:56.880Z,56.01
2022-08-19T08:38:29.844Z,56.21
2022-08-19T08:40:18.289Z,56.04
2022-08-19T08:41:58.986Z,55.97
2022-08-19T08:43:35.800Z,55.81
2022-08-19T08:45:15.782Z,55.40
2022-08-19T08:46:50.423Z,55.42
2022-08-19T08:48:34.175Z,54.81
2022-08-19T08:50:12.150Z,54.55
2022-08-19T08:51:48.796Z,53.70
2022-08-19T08:53:35.528Z,53.91
2022-08-19T08:55:13.586Z,54.49
2022-08-19T08:56:46.947Z,54.70
2022-08-19T08:58:25.280Z,54.40
2022-08-19T09:00:01.375Z,54.17
2022-08-19T09:01:33.382Z,53.61
2022-08-19T09:03:15.693Z,54.04
2022-08-19T09:04:50.363Z,54.36
2022-08-19T09:06:30.263Z,54.50
2022-08-19T09:08:07.860Z,54.60
2022-08-19T09:09:43.040Z,54.58
2022-08-19T09:11:42.870Z,54.10
2022-08-19T09:13:28.329Z,54.13
2022-08-19T09:15:07.027Z,53.51
2022-08-19T09:16:41.234Z,52.66
2022-08-19T09:18:15.369Z,52.38
2022-08-19T09:19:54.140Z,52.49
2022-08-19T09:21:33.007Z,52.44
2022-08-19T09:23:06.198Z,52.27
2022-08-19T09:24:37.986Z,51.50
2022-08-19T09:26:14.342Z,51.10
2022-08-19T09:27:50.090Z,50.73
2022-08-19T09:29:22.477Z,50.41
2022-08-19T09:30:55.884Z,49.80
2022-08-19T09:32:28.452Z,49.84
2022-08-19T09:34:00.436Z,49.42
2022-08-19T09:35:33.106Z,49.74
2022-08-19T09:37:22.697Z,48.95
2022-08-19T09:38:57.440Z,49.56
2022-08-19T09:40:34.377Z,48.77
2022-08-19T09:42:16.410Z,48.70
2022-08-19T09:43:54.756Z,48.44
2022-08-19T09:45:26.476Z,47.90
2022-08-19T09:46:59.589Z,48.35
2022-08-19T09:48:31.413Z,48.31
2022-08-19T09:50:03.574Z,48.67
2022-08-19T09:51:35.921Z,48.91
2022-08-19T09:53:09.210Z,48.45
2022-08-19T09:54:41.207Z,48.57
2022-08-19T09:56:15.976Z,48.72
2022-08-19T09:57:54.480Z,48.55
2022-08-19T09:59:26.430Z,48.33
2022-08-19T10:00:59.568Z,48.18
2022-08-19T10:02:33.113Z,48.40
2022-08-19T10:04:19.782Z,48.45
2022-08-19T10:05:55.470Z,48.25
2022-08-19T10:07:28.985Z,48.01
2022-08-19T10:09:10.653Z,48.22
2022-08-19T10:10:46.574Z,48.14
2022-08-19T10:12:20.301Z,47.58
2022-08-19T10:13:52.140Z,47.80
2022-08-19T10:15:29.260Z,47.09
2022-08-19T10:17:04.701Z,47.45
2022-08-19T10:18:51.979Z,47.43
2022-08-19T10:20:31.088Z,47.24
2022-08-19T10:22:10.063Z,47.61
2022-08-19T10:23:46.536Z,48.30
2022-08-19T10:25:18.823Z,47.88
2022-08-19T10:26:55.897Z,47.72
2022-08-19T10:28:30.809Z,47.49
2022-08-19T10:30:02.913Z,47.39
2022-08-19T10:32:01.295Z,46.89
2022-08-19T10:33:53.178Z,47.47
2022-08-19T10:35:22.203Z,47.38
2022-08-19T10:37:00.527Z,47.19
2022-08-19T10:38:34.751Z,47.68
2022-08-19T10:40:08.795Z,47.74
2022-08-19T10:41:41.174Z,48.10
2022-08-19T10:43:12.889Z,47.35
2022-08-19T10:44:44.678Z,47.30
2022-08-19T10:46:16.907Z,47.75
2022-08-19T10:47:48.861Z,47.64
2022-08-19T10:49:20.766Z,47.51
2022-08-19T10:51:22.647Z,47.21
2022-08-19T10:52:55.184Z,47.34
2022-08-19T10:54:48.627Z,47.60
2022-08-19T10:56:39.496Z,47.89
2022-08-19T10:58:13.182Z,47.38
2022-08-19T10:59:45.283Z,47.57
2022-08-19T11:01:17.191Z,46.87
2022-08-19T11:02:49.015Z,46.91
2022-08-19T11:04:21.548Z,46.68
2022-08-19T11:06:03.625Z,46.46
2022-08-19T11:07:35.323Z,46.12
2022-08-19T11:09:07.264Z,46.12
2022-08-19T11:10:43.557Z,45.42
2022-08-19T11:12:23.509Z,45.19
2022-08-19T11:13:55.539Z,45.41
2022-08-19T11:15:29.596Z,45.59
2022-08-19T11:17:01.994Z,45.83
2022-08-19T11:18:35.269Z,44.91
2022-08-19T11:20:08.117Z,45.79
2022-08-19T11:21:43.902Z,45.77
2022-08-19T11:23:15.638Z,45.84
2022-08-19T11:24:47.341Z,45.88
2022-08-19T11:26:20.441Z,45.22
2022-08-19T11:27:53.221Z,45.18
2022-08-19T11:29:26.754Z,45.51
2022-08-19T11:30:58.474Z,44.70
2022-08-19T11:32:30.195Z,44.80
2022-08-19T11:34:05.036Z,44.23
2022-08-19T11:35:40.796Z,43.27
2022-08-19T11:37:13.904Z,43.24
2022-08-19T11:38:45.903Z,43.00
2022-08-19T11:40:18.028Z,42.60
2022-08-19T11:41:50.275Z,42.95
2022-08-19T11:43:22.099Z,42.66
2022-08-19T11:44:54.363Z,43.43
2022-08-19T11:46:31.107Z,43.50
2022-08-19T11:48:03.290Z,43.36
2022-08-19T11:49:37.165Z,43.71
2022-08-19T11:51:12.046Z,43.09
2022-08-19T11:52:46.135Z,42.77
2022-08-19T11:54:18.633Z,43.54
2022-08-19T11:55:56.755Z,43.29
2022-08-19T11:57:28.515Z,43.49
2022-08-19T11:59:01.697Z,42.93
2022-08-19T12:00:34.122Z,42.38
2022-08-19T12:02:05.879Z,42.23
2022-08-19T12:03:38.554Z,42.82
2022-08-19T12:05:12.889Z,42.30
2022-08-19T12:06:45.338Z,42.32
2022-08-19T12:08:19.039Z,42.48
2022-08-19T12:09:50.827Z,42.88
2022-08-19T12:11:23.418Z,43.08
2022-08-19T12:12:58.057Z,43.07
2022-08-19T12:14:32.862Z,43.06
2022-08-19T12:16:09.621Z,43.06
2022-08-19T12:17:42.555Z,43.22
2022-08-19T12:19:14.591Z,42.99
2022-08-19T12:20:58.032Z,42.75
2022-08-19T12:22:29.982Z,42.18
2022-08-19T12:24:06.733Z,41.99
2022-08-19T12:25:50.816Z,41.47
2022-08-19T12:27:35.659Z,41.50
2022-08-19T12:29:12.280Z,40.49
2022-08-19T12:30:44.296Z,40.13
2022-08-19T12:32:16.484Z,40.58
2022-08-19T12:33:48.762Z,40.82
2022-08-19T12:35:23.565Z,40.83
2022-08-19T12:36:55.841Z,40.41
2022-08-19T12:38:28.064Z,39.85
2022-08-19T12:40:01.960Z,40.23
2022-08-19T12:41:33.915Z,39.35
2022-08-19T12:43:05.672Z,39.28
2022-08-19T12:44:41.674Z,39.03
2022-08-19T12:46:15.148Z,38.45
2022-08-19T12:47:49.579Z,37.88
2022-08-19T12:49:47.104Z,37.14
2022-08-19T12:51:15.914Z,37.19
2022-08-19T12:52:48.238Z,36.15
2022-08-19T12:54:20.976Z,35.77
2022-08-19T12:55:58.233Z,34.02
2022-08-19T12:57:33.815Z,34.35
2022-08-19T12:59:05.921Z,34.27
2022-08-19T13:00:37.653Z,33.34
2022-08-19T13:02:13.571Z,33.40
2022-08-19T13:03:46.791Z,33.71
2022-08-19T13:05:23.791Z,32.87
2022-08-19T13:06:55.736Z,32.92
2022-08-19T13:08:27.534Z,32.31
2022-08-19T13:09:59.919Z,32.07
2022-08-19T13:11:35.960Z,31.92
2022-08-19T13:13:10.706Z,32.23
2022-08-19T13:14:42.975Z,32.84
2022-08-19T13:16:16.013Z,31.85
2022-08-19T13:17:51.821Z,31.88
2022-08-19T13:19:24.491Z,31.82
2022-08-19T13:20:57.374Z,31.10
2022-08-19T13:22:29.322Z,29.78
2022-08-19T13:24:04.732Z,29.32
2022-08-19T13:25:37.179Z,29.30
2022-08-19T13:27:12.063Z,28.79
2022-08-19T13:29:03.464Z,28.53
2022-08-19T13:30:53.947Z,28.41
2022-08-19T13:32:44.315Z,28.79
2022-08-19T13:34:18.525Z,29.17
2022-08-19T13:35:56.006Z,29.23
2022-08-19T13:37:42.903Z,28.44
2022-08-19T13:39:14.952Z,28.47
2022-08-19T13:40:47.476Z,28.04
2022-08-19T13:42:21.127Z,27.89
2022-08-19T13:43:53.330Z,27.57
2022-08-19T13:45:27.984Z,27.03
2022-08-19T13:47:07.673Z,26.11
2022-08-19T13:48:39.566Z,26.96
2022-08-19T13:50:12.039Z,27.98
2022-08-19T13:51:44.277Z,28.52
2022-08-19T13:53:17.421Z,29.22
2022-08-19T13:54:49.386Z,29.11
2022-08-19T13:56:25.873Z,27.46
2022-08-19T13:58:02.630Z,28.37
2022-08-19T13:59:34.405Z,28.17
2022-08-19T14:01:07.225Z,28.00
2022-08-19T14:02:39.955Z,27.99
2022-08-19T14:04:11.781Z,27.75
2022-08-19T14:05:43.641Z,28.52
2022-08-19T14:07:15.473Z,28.50
2022-08-19T14:08:47.640Z,28.82
2022-08-19T14:10:20.473Z,29.45
2022-08-19T14:11:52.462Z,28.41
2022-08-19T14:13:26.423Z,29.30
2022-08-19T14:14:58.369Z,29.04
2022-08-19T14:16:31.380Z,28.47
2022-08-19T14:18:03.174Z,28.33
2022-08-19T14:19:34.956Z,28.39
2022-08-19T14:21:07.887Z,27.66
2022-08-19T14:22:41.681Z,28.04
2022-08-19T14:24:13.436Z,27.61
2022-08-19T14:25:45.558Z,27.39
2022-08-19T14:27:17.318Z,26.37
2022-08-19T14:28:50.480Z,25.95
2022-08-19T14:30:27.657Z,25.97
2022-08-19T14:31:59.974Z,25.78
2022-08-19T14:33:33.325Z,25.94
2022-08-19T14:35:06.528Z,26.09
2022-08-19T14:36:39.304Z,25.76
2022-08-19T14:38:16.861Z,25.68
2022-08-19T14:39:48.922Z,25.56
2022-08-19T14:41:22.739Z,26.28
2022-08-19T14:43:00.181Z,26.80
2022-08-19T14:44:34.764Z,27.49
2022-08-19T14:46:07.348Z,27.59
2022-08-19T14:47:40.804Z,27.23
2022-08-19T14:49:13.048Z,27.43
2022-08-19T14:50:45.401Z,27.29
2022-08-19T14:52:18.095Z,26.58
2022-08-19T14:53:50.414Z,26.05
2022-08-19T14:55:22.212Z,25.08
2022-08-19T14:56:53.899Z,24.95
2022-08-19T14:58:29.282Z,25.12
2022-08-19T15:00:05.512Z,24.87
2022-08-19T15:01:37.300Z,24.65
2022-08-19T15:03:09.025Z,25.24
2022-08-19T15:04:40.933Z,24.72
2022-08-19T15:06:13.180Z,25.54
2022-08-19T15:07:45.218Z,26.64
2022-08-19T15:09:16.989Z,27.10
2022-08-19T15:10:48.801Z,28.21
2022-08-19T15:12:22.011Z,28.84
2022-08-19T15:13:54.970Z,29.51
2022-08-19T15:15:28.635Z,29.66
2022-08-19T15:17:00.620Z,29.88
2022-08-19T15:18:33.487Z,30.84
2022-08-19T15:20:06.543Z,30.82
2022-08-19T15:21:38.473Z,31.49
2022-08-19T15:23:11.561Z,32.44
2022-08-19T15:24:48.247Z,32.03
2022-08-19T15:26:21.019Z,32.61
2022-08-19T15:27:53.682Z,32.98
2022-08-19T15:29:26.441Z,33.28
2022-08-19T15:30:59.590Z,32.80
2022-08-19T15:32:31.507Z,32.91
2022-08-19T15:34:04.175Z,34.45
2022-08-19T15:35:35.910Z,34.32
2022-08-19T15:37:07.971Z,35.15
2022-08-19T15:38:43.177Z,35.10
2022-08-19T15:40:18.085Z,35.37
2022-08-19T15:41:49.865Z,34.54
2022-08-19T15:43:22.352Z,33.99
2022-08-19T15:44:54.081Z,33.65
2022-08-19T15:46:31.479Z,33.92
2022-08-19T15:48:05.096Z,33.95
2022-08-19T15:49:36.852Z,34.14
2022-08-19T15:51:08.888Z,34.33
2022-08-19T15:52:49.818Z,34.94
2022-08-19T15:54:22.335Z,34.73
2022-08-19T15:55:54.123Z,35.72
2022-08-19T15:57:25.848Z,35.56
2022-08-19T15:59:16.265Z,35.96
2022-08-19T16:01:06.792Z,36.07
2022-08-19T16:03:04.420Z,37.20
2022-08-19T16:04:54.525Z,38.33
2022-08-19T16:06:26.454Z,39.45
2022-08-19T16:07:58.268Z,40.05
2022-08-19T16:09:32.005Z,40.83
2022-08-19T16:11:04.439Z,41.29
2022-08-19T16:12:36.286Z,41.78
2022-08-19T16:14:09.460Z,42.12
2022-08-19T16:15:43.016Z,42.42
2022-08-19T16:17:14.948Z,42.35
2022-08-19T16:18:48.832Z,42.90
2022-08-19T16:20:22.208Z,42.56
2022-08-19T16:21:56.974Z,42.68
2022-08-19T16:23:29.089Z,42.19
2022-08-19T16:25:02.850Z,42.26
2022-08-19T16:26:34.866Z,42.39
2022-08-19T16:28:08.537Z,42.20
2022-08-19T16:29:40.785Z,42.21
2022-08-19T16:31:15.492Z,42.59
2022-08-19T16:32:47.690Z,42.94
2022-08-19T16:34:21.736Z,42.79
2022-08-19T16:36:00.306Z,43.33
2022-08-19T16:37:38.950Z,43.21
2022-08-19T16:39:12.643Z,43.32
2022-08-19T16:40:46.765Z,43.45
2022-08-19T16:42:18.612Z,43.60
2022-08-19T16:43:54.716Z,44.14
2022-08-19T16:45:26.612Z,44.65
2022-08-19T16:46:59.675Z,44.67
2022-08-19T16:48:33.035Z,44.80
2022-08-19T16:50:07.681Z,45.54
2022-08-19T16:51:39.897Z,45.63
2022-08-19T16:53:11.756Z,45.19
2022-08-19T16:54:44.662Z,45.18
2022-08-19T16:56:17.008Z,45.67
2022-08-19T16:57:48.822Z,45.46
2022-08-19T16:59:20.620Z,45.55
2022-08-19T17:00:53.623Z,45.30
2022-08-19T17:02:29.691Z,45.51
2022-08-19T17:04:02.473Z,45.18
2022-08-19T17:05:35.653Z,45.17
2022-08-19T17:07:09.423Z,45.38
2022-08-19T17:08:43.004Z,45.55
2022-08-19T17:10:17.524Z,45.53
2022-08-19T17:11:49.254Z,45.28
2022-08-19T17:13:21.835Z,45.44
2022-08-19T17:14:53.840Z,45.36
2022-08-19T17:16:29.232Z,46.10
2022-08-19T17:18:01.561Z,46.02
2022-08-19T17:19:33.517Z,45.62
2022-08-19T17:21:06.821Z,45.59
2022-08-19T17:22:38.892Z,44.87
2022-08-19T17:24:10.820Z,44.72
2022-08-19T17:25:43.139Z,45.10
2022-08-19T17:27:15.057Z,44.71
2022-08-19T17:28:51.628Z,44.97
2022-08-19T17:30:24.578Z,45.46
2022-08-19T17:31:58.444Z,45.71
2022-08-19T17:33:32.610Z,45.25
2022-08-19T17:35:06.180Z,45.52
2022-08-19T17:36:39.382Z,45.35
2022-08-19T17:38:15.318Z,45.27
2022-08-19T17:39:47.206Z,45.42
2022-08-19T17:41:18.967Z,45.05
2022-08-19T17:42:51.210Z,45.13
2022-08-19T17:44:23.406Z,44.64
2022-08-19T17:45:55.145Z,44.94
2022-08-19T17:47:28.404Z,45.39
2022-08-19T17:49:00.410Z,45.51
2022-08-19T17:50:32.988Z,45.99
2022-08-19T17:52:09.960Z,46.13
2022-08-19T17:53:42.526Z,46.37
2022-08-19T17:55:15.386Z,46.67
2022-08-19T17:56:47.596Z,47.01
2022-08-19T17:58:20.486Z,46.91
2022-08-19T17:59:54.298Z,47.62
2022-08-19T18:01:39.040Z,48.40
2022-08-19T18:03:19.637Z,49.43
2022-08-19T18:04:52.133Z,51.11
2022-08-19T18:06:23.990Z,51.39
2022-08-19T18:07:58.382Z,52.19
2022-08-19T18:09:41.439Z,51.40
2022-08-19T18:11:15.725Z,50.94
2022-08-19T18:12:47.727Z,50.87
2022-08-19T18:14:19.597Z,50.77
2022-08-19T18:15:51.603Z,50.77
2022-08-19T18:17:24.414Z,51.05
2022-08-19T18:18:56.202Z,50.85
2022-08-19T18:20:28.153Z,50.51
2022-08-19T18:21:59.931Z,50.87
2022-08-19T18:23:44.451Z,50.83
2022-08-19T18:25:24.107Z,50.71
2022-08-19T18:26:55.911Z,50.58
2022-08-19T18:28:28.374Z,50.18
2022-08-19T18:30:00.986Z,50.23
2022-08-19T18:31:33.442Z,50.04
2022-08-19T18:33:15.176Z,50.06
2022-08-19T18:34:47.089Z,50.18
2022-08-19T18:36:37.509Z,49.80
2022-08-19T18:38:30.975Z,50.17
2022-08-19T18:40:23.508Z,50.10
2022-08-19T18:42:13.789Z,50.15
2022-08-19T18:44:04.111Z,50.09
2022-08-19T18:45:54.277Z,50.48
2022-08-19T18:47:44.512Z,50.77
2022-08-19T18:49:18.552Z,50.46
2022-08-19T18:50:51.100Z,50.89
2022-08-19T18:52:26.897Z,51.01
2022-08-19T18:53:59.600Z,50.93
2022-08-19T18:55:33.145Z,51.08
2022-08-19T18:57:05.906Z,51.03
2022-08-19T18:58:38.577Z,50.99
2022-08-19T19:00:14.160Z,51.16
2022-08-19T19:01:50.537Z,51.28
2022-08-19T19:03:23.675Z,51.20
2022-08-19T19:04:56.100Z,51.04
2022-08-19T19:06:31.366Z,51.38
2022-08-19T19:08:03.316Z,51.00
2022-08-19T19:09:35.322Z,51.08
2022-08-19T19:11:09.152Z,50.89
2022-08-19T19:12:44.666Z,51.01
2022-08-19T19:14:45.638Z,51.34
2022-08-19T19:16:13.540Z,51.66
2022-08-19T19:17:45.855Z,51.75
2022-08-19T19:19:19.481Z,52.07
2022-08-19T19:20:51.268Z,52.45
2022-08-19T19:22:24.124Z,52.58
2022-08-19T19:23:55.893Z,52.52
2022-08-19T19:25:27.796Z,52.65
2022-08-19T19:27:21.887Z,52.89
2022-08-19T19:28:54.835Z,52.80
2022-08-19T19:30:30.781Z,53.06
2022-08-19T19:32:02.937Z,53.01
2022-08-19T19:33:34.825Z,53.18
2022-08-19T19:35:10.547Z,53.25
2022-08-19T19:36:42.279Z,53.08
2022-08-19T19:38:14.109Z,53.09
2022-08-19T19:39:47.985Z,52.89
2022-08-19T19:41:25.956Z,52.82
2022-08-19T19:42:59.937Z,52.81
2022-08-19T19:44:32.401Z,52.81
2022-08-19T19:46:04.743Z,52.69
2022-08-19T19:47:39.460Z,52.87
2022-08-19T19:49:12.056Z,52.89
2022-08-19T19:50:45.068Z,52.79
2022-08-19T19:52:17.042Z,52.79
2022-08-19T19:53:49.168Z,52.75
2022-08-19T19:55:21.213Z,52.61
2022-08-19T19:56:53.835Z,52.50
2022-08-19T19:58:28.940Z,53.23
2022-08-19T20:00:01.196Z,53.46
2022-08-19T20:01:33.011Z,54.32
2022-08-19T20:03:06.183Z,54.78
2022-08-19T20:04:38.555Z,54.85
2022-08-19T20:06:13.885Z,55.09
2022-08-19T20:08:04.291Z,54.75
2022-08-19T20:09:58.243Z,54.98
2022-08-19T20:11:31.774Z,55.70
2022-08-19T20:13:04.650Z,56.28
2022-08-19T20:14:38.478Z,56.28
2022-08-19T20:16:10.290Z,56.23
2022-08-19T20:17:42.933Z,56.26
2022-08-19T20:19:19.947Z,56.27
2022-08-19T20:20:51.857Z,56.77
2022-08-19T20:22:25.540Z,56.47